sensor_id;sensor_type;location;lat;lon;timestamp;temperature;humidity
33139;DHT22;19501;50.948;5.316;2023-03-29T00:01:17;7.90;99.90
33139;DHT22;19501;50.948;5.316;2023-03-29T00:03:45;7.80;99.90
33139;DHT22;19501;50.948;5.316;2023-03-29T00:06:11;7.70;99.90
33139;DHT22;19501;50.948;5.316;2023-03-29T00:08:47;7.60;99.90
33139;DHT22;19501;50.948;5.316;2023-03-29T00:11:16;7.60;99.90
33139;DHT22;19501;50.948;5.316;2023-03-29T00:13:42;7.60;99.90
33139;DHT22;19501;50.948;5.316;2023-03-29T00:16:08;7.70;99.90
33139;DHT22;19501;50.948;5.316;2023-03-29T00:18:34;7.60;99.90
33139;DHT22;19501;50.948;5.316;2023-03-29T00:21:00;7.60;99.90
33139;DHT22;19501;50.948;5.316;2023-03-29T00:23:26;7.70;99.90
33139;DHT22;19501;50.948;5.316;2023-03-29T00:25:52;7.70;99.90
33139;DHT22;19501;50.948;5.316;2023-03-29T00:28:18;7.70;99.90
33139;DHT22;19501;50.948;5.316;2023-03-29T00:30:44;7.70;99.90
33139;DHT22;19501;50.948;5.316;2023-03-29T00:33:13;7.80;99.90
33139;DHT22;19501;50.948;5.316;2023-03-29T00:35:39;7.80;99.90
33139;DHT22;19501;50.948;5.316;2023-03-29T00:38:06;7.80;99.90
33139;DHT22;19501;50.948;5.316;2023-03-29T00:40:33;7.90;99.90
33139;DHT22;19501;50.948;5.316;2023-03-29T00:42:59;8.10;99.90
33139;DHT22;19501;50.948;5.316;2023-03-29T00:45:27;8.00;99.90
33139;DHT22;19501;50.948;5.316;2023-03-29T00:47:59;8.10;99.90
33139;DHT22;19501;50.948;5.316;2023-03-29T00:52:59;8.10;99.90
33139;DHT22;19501;50.948;5.316;2023-03-29T00:55:28;8.10;99.90
33139;DHT22;19501;50.948;5.316;2023-03-29T00:57:56;8.10;99.90
33139;DHT22;19501;50.948;5.316;2023-03-29T01:00:28;8.20;99.90
33139;DHT22;19501;50.948;5.316;2023-03-29T01:02:57;8.20;99.90
33139;DHT22;19501;50.948;5.316;2023-03-29T01:05:31;8.20;99.90
33139;DHT22;19501;50.948;5.316;2023-03-29T01:08:02;8.20;99.90
33139;DHT22;19501;50.948;5.316;2023-03-29T01:10:37;8.30;99.90
33139;DHT22;19501;50.948;5.316;2023-03-29T01:13:10;8.30;99.90
33139;DHT22;19501;50.948;5.316;2023-03-29T01:15:40;8.30;99.90
33139;DHT22;19501;50.948;5.316;2023-03-29T01:18:08;8.20;99.90
33139;DHT22;19501;50.948;5.316;2023-03-29T01:28:35;8.20;99.90
33139;DHT22;19501;50.948;5.316;2023-03-29T01:31:06;8.40;99.90
33139;DHT22;19501;50.948;5.316;2023-03-29T01:33:41;8.50;99.90
33139;DHT22;19501;50.948;5.316;2023-03-29T01:36:19;8.60;99.90
33139;DHT22;19501;50.948;5.316;2023-03-29T01:39:05;8.40;99.90
33139;DHT22;19501;50.948;5.316;2023-03-29T01:44:30;8.50;99.90
33139;DHT22;19501;50.948;5.316;2023-03-29T01:47:28;8.50;99.90
33139;DHT22;19501;50.948;5.316;2023-03-29T01:49:57;8.50;99.90
33139;DHT22;19501;50.948;5.316;2023-03-29T01:52:58;8.50;99.90
33139;DHT22;19501;50.948;5.316;2023-03-29T01:55:34;8.50;99.90
33139;DHT22;19501;50.948;5.316;2023-03-29T01:58:03;8.50;99.90
33139;DHT22;19501;50.948;5.316;2023-03-29T02:00:33;8.50;99.90
33139;DHT22;19501;50.948;5.316;2023-03-29T02:03:07;8.60;99.90
33139;DHT22;19501;50.948;5.316;2023-03-29T02:05:36;8.60;99.90
33139;DHT22;19501;50.948;5.316;2023-03-29T02:08:04;8.60;99.90
33139;DHT22;19501;50.948;5.316;2023-03-29T02:10:33;8.70;99.90
33139;DHT22;19501;50.948;5.316;2023-03-29T02:12:59;8.60;99.90
33139;DHT22;19501;50.948;5.316;2023-03-29T02:15:26;8.60;99.90
33139;DHT22;19501;50.948;5.316;2023-03-29T02:17:52;8.60;99.90
33139;DHT22;19501;50.948;5.316;2023-03-29T02:20:32;8.60;99.90
33139;DHT22;19501;50.948;5.316;2023-03-29T02:25:43;8.70;99.90
33139;DHT22;19501;50.948;5.316;2023-03-29T02:28:10;8.80;99.90
33139;DHT22;19501;50.948;5.316;2023-03-29T02:31:04;8.80;99.90
33139;DHT22;19501;50.948;5.316;2023-03-29T02:33:50;8.90;99.90
33139;DHT22;19501;50.948;5.316;2023-03-29T02:36:54;8.80;99.90
33139;DHT22;19501;50.948;5.316;2023-03-29T02:39:24;8.90;99.90
33139;DHT22;19501;50.948;5.316;2023-03-29T02:41:51;8.80;99.90
33139;DHT22;19501;50.948;5.316;2023-03-29T02:44:21;8.90;99.90
33139;DHT22;19501;50.948;5.316;2023-03-29T02:46:55;8.90;99.90
33139;DHT22;19501;50.948;5.316;2023-03-29T02:49:21;8.70;99.90
33139;DHT22;19501;50.948;5.316;2023-03-29T02:51:50;8.70;99.90
33139;DHT22;19501;50.948;5.316;2023-03-29T02:54:20;8.90;99.90
33139;DHT22;19501;50.948;5.316;2023-03-29T02:57:07;8.90;99.90
33139;DHT22;19501;50.948;5.316;2023-03-29T02:59:34;8.90;99.90
33139;DHT22;19501;50.948;5.316;2023-03-29T03:02:03;9.00;99.90
33139;DHT22;19501;50.948;5.316;2023-03-29T03:04:30;8.90;99.90
33139;DHT22;19501;50.948;5.316;2023-03-29T03:06:56;8.90;99.90
33139;DHT22;19501;50.948;5.316;2023-03-29T03:09:22;8.80;99.90
33139;DHT22;19501;50.948;5.316;2023-03-29T03:11:50;8.90;99.90
33139;DHT22;19501;50.948;5.316;2023-03-29T03:14:16;8.80;99.90
33139;DHT22;19501;50.948;5.316;2023-03-29T03:16:47;8.90;99.90
33139;DHT22;19501;50.948;5.316;2023-03-29T03:19:13;9.00;99.90
33139;DHT22;19501;50.948;5.316;2023-03-29T03:21:39;9.10;99.90
33139;DHT22;19501;50.948;5.316;2023-03-29T03:24:05;9.00;99.90
33139;DHT22;19501;50.948;5.316;2023-03-29T03:26:34;9.10;99.90
33139;DHT22;19501;50.948;5.316;2023-03-29T03:29:00;9.00;99.90
33139;DHT22;19501;50.948;5.316;2023-03-29T03:31:28;9.00;99.90
33139;DHT22;19501;50.948;5.316;2023-03-29T03:33:54;9.00;99.90
33139;DHT22;19501;50.948;5.316;2023-03-29T03:36:20;8.90;99.90
33139;DHT22;19501;50.948;5.316;2023-03-29T03:38:53;8.90;99.90
33139;DHT22;19501;50.948;5.316;2023-03-29T03:41:19;8.80;99.90
33139;DHT22;19501;50.948;5.316;2023-03-29T03:43:47;8.80;99.90
33139;DHT22;19501;50.948;5.316;2023-03-29T03:46:14;8.90;99.90
33139;DHT22;19501;50.948;5.316;2023-03-29T03:48:41;9.00;99.90
33139;DHT22;19501;50.948;5.316;2023-03-29T03:51:07;8.90;99.90
33139;DHT22;19501;50.948;5.316;2023-03-29T03:53:33;9.00;99.90
33139;DHT22;19501;50.948;5.316;2023-03-29T03:55:58;9.10;99.90
33139;DHT22;19501;50.948;5.316;2023-03-29T03:58:26;9.10;99.90
33139;DHT22;19501;50.948;5.316;2023-03-29T04:00:53;9.10;99.90
33139;DHT22;19501;50.948;5.316;2023-03-29T04:03:19;9.20;99.90
33139;DHT22;19501;50.948;5.316;2023-03-29T04:05:46;9.10;99.90
33139;DHT22;19501;50.948;5.316;2023-03-29T04:08:13;9.20;99.90
33139;DHT22;19501;50.948;5.316;2023-03-29T04:10:39;9.20;99.90
33139;DHT22;19501;50.948;5.316;2023-03-29T04:13:05;9.20;99.90
33139;DHT22;19501;50.948;5.316;2023-03-29T04:15:32;9.20;99.90
33139;DHT22;19501;50.948;5.316;2023-03-29T04:18:00;9.20;99.90
33139;DHT22;19501;50.948;5.316;2023-03-29T04:20:26;9.10;99.90
33139;DHT22;19501;50.948;5.316;2023-03-29T04:22:53;9.10;99.90
33139;DHT22;19501;50.948;5.316;2023-03-29T04:25:20;9.20;99.90
33139;DHT22;19501;50.948;5.316;2023-03-29T04:27:47;9.20;99.90
33139;DHT22;19501;50.948;5.316;2023-03-29T04:30:13;9.20;99.90
33139;DHT22;19501;50.948;5.316;2023-03-29T04:32:39;9.20;99.90
33139;DHT22;19501;50.948;5.316;2023-03-29T04:35:05;9.30;99.90
33139;DHT22;19501;50.948;5.316;2023-03-29T04:37:34;9.40;99.90
33139;DHT22;19501;50.948;5.316;2023-03-29T04:40:05;9.50;99.90
33139;DHT22;19501;50.948;5.316;2023-03-29T04:42:33;9.50;99.90
33139;DHT22;19501;50.948;5.316;2023-03-29T04:44:59;9.50;99.90
33139;DHT22;19501;50.948;5.316;2023-03-29T04:47:25;9.40;99.90
33139;DHT22;19501;50.948;5.316;2023-03-29T04:49:54;9.40;99.90
33139;DHT22;19501;50.948;5.316;2023-03-29T04:52:20;9.40;99.90
33139;DHT22;19501;50.948;5.316;2023-03-29T04:55:00;9.50;99.90
33139;DHT22;19501;50.948;5.316;2023-03-29T04:57:26;9.50;99.90
33139;DHT22;19501;50.948;5.316;2023-03-29T04:59:52;9.50;99.90
33139;DHT22;19501;50.948;5.316;2023-03-29T05:02:18;9.40;99.90
33139;DHT22;19501;50.948;5.316;2023-03-29T05:04:44;9.40;99.90
33139;DHT22;19501;50.948;5.316;2023-03-29T05:07:10;9.30;99.90
33139;DHT22;19501;50.948;5.316;2023-03-29T05:09:38;9.30;99.90
33139;DHT22;19501;50.948;5.316;2023-03-29T05:12:04;9.40;99.90
33139;DHT22;19501;50.948;5.316;2023-03-29T05:14:30;9.40;99.90
33139;DHT22;19501;50.948;5.316;2023-03-29T05:16:56;9.30;99.90
33139;DHT22;19501;50.948;5.316;2023-03-29T05:19:23;9.20;99.90
33139;DHT22;19501;50.948;5.316;2023-03-29T05:21:48;9.20;99.90
33139;DHT22;19501;50.948;5.316;2023-03-29T05:24:15;9.20;99.90
33139;DHT22;19501;50.948;5.316;2023-03-29T05:26:42;9.20;99.90
33139;DHT22;19501;50.948;5.316;2023-03-29T05:29:08;9.30;99.90
33139;DHT22;19501;50.948;5.316;2023-03-29T05:31:35;9.20;99.90
33139;DHT22;19501;50.948;5.316;2023-03-29T05:34:02;9.30;99.90
33139;DHT22;19501;50.948;5.316;2023-03-29T05:36:29;9.40;99.90
33139;DHT22;19501;50.948;5.316;2023-03-29T05:38:54;9.40;99.90
33139;DHT22;19501;50.948;5.316;2023-03-29T05:41:24;9.30;99.90
33139;DHT22;19501;50.948;5.316;2023-03-29T05:43:50;9.20;99.90
33139;DHT22;19501;50.948;5.316;2023-03-29T05:46:16;9.30;99.90
33139;DHT22;19501;50.948;5.316;2023-03-29T05:48:42;9.30;99.90
33139;DHT22;19501;50.948;5.316;2023-03-29T05:51:07;9.30;99.90
33139;DHT22;19501;50.948;5.316;2023-03-29T05:53:33;9.30;99.90
33139;DHT22;19501;50.948;5.316;2023-03-29T05:56:00;9.30;99.90
33139;DHT22;19501;50.948;5.316;2023-03-29T05:58:25;9.30;99.90
33139;DHT22;19501;50.948;5.316;2023-03-29T06:00:53;9.50;99.90
33139;DHT22;19501;50.948;5.316;2023-03-29T06:03:21;9.50;99.90
33139;DHT22;19501;50.948;5.316;2023-03-29T06:05:54;9.60;99.90
33139;DHT22;19501;50.948;5.316;2023-03-29T06:08:20;9.60;99.90
33139;DHT22;19501;50.948;5.316;2023-03-29T06:10:46;9.70;99.90
33139;DHT22;19501;50.948;5.316;2023-03-29T06:13:13;9.60;99.90
33139;DHT22;19501;50.948;5.316;2023-03-29T06:15:39;9.60;99.90
33139;DHT22;19501;50.948;5.316;2023-03-29T06:18:05;9.60;99.90
33139;DHT22;19501;50.948;5.316;2023-03-29T06:20:31;9.60;99.90
33139;DHT22;19501;50.948;5.316;2023-03-29T06:22:57;9.70;99.90
33139;DHT22;19501;50.948;5.316;2023-03-29T06:25:23;9.70;99.90
33139;DHT22;19501;50.948;5.316;2023-03-29T06:27:49;9.70;99.90
33139;DHT22;19501;50.948;5.316;2023-03-29T06:30:16;9.80;99.90
33139;DHT22;19501;50.948;5.316;2023-03-29T06:32:44;9.80;99.90
33139;DHT22;19501;50.948;5.316;2023-03-29T06:35:10;9.80;99.90
33139;DHT22;19501;50.948;5.316;2023-03-29T06:37:36;9.90;99.90
33139;DHT22;19501;50.948;5.316;2023-03-29T06:40:04;9.80;99.90
33139;DHT22;19501;50.948;5.316;2023-03-29T06:42:31;9.80;99.90
33139;DHT22;19501;50.948;5.316;2023-03-29T06:44:57;9.80;99.90
33139;DHT22;19501;50.948;5.316;2023-03-29T06:47:24;9.90;99.90
33139;DHT22;19501;50.948;5.316;2023-03-29T06:49:55;10.00;99.90
33139;DHT22;19501;50.948;5.316;2023-03-29T06:52:24;10.20;99.90
33139;DHT22;19501;50.948;5.316;2023-03-29T06:54:50;10.30;99.90
33139;DHT22;19501;50.948;5.316;2023-03-29T06:57:16;10.20;99.90
33139;DHT22;19501;50.948;5.316;2023-03-29T06:59:41;10.20;99.90
33139;DHT22;19501;50.948;5.316;2023-03-29T07:02:08;10.10;99.90
33139;DHT22;19501;50.948;5.316;2023-03-29T07:04:37;10.10;99.90
33139;DHT22;19501;50.948;5.316;2023-03-29T07:07:03;10.20;99.90
33139;DHT22;19501;50.948;5.316;2023-03-29T07:09:31;10.30;99.90
33139;DHT22;19501;50.948;5.316;2023-03-29T07:11:58;10.40;99.90
33139;DHT22;19501;50.948;5.316;2023-03-29T07:14:25;10.40;99.90
33139;DHT22;19501;50.948;5.316;2023-03-29T07:16:53;10.50;99.90
33139;DHT22;19501;50.948;5.316;2023-03-29T07:19:20;10.40;99.90
33139;DHT22;19501;50.948;5.316;2023-03-29T07:21:47;10.40;99.90
33139;DHT22;19501;50.948;5.316;2023-03-29T07:24:13;10.40;99.90
33139;DHT22;19501;50.948;5.316;2023-03-29T07:26:38;10.40;99.90
33139;DHT22;19501;50.948;5.316;2023-03-29T07:29:04;10.50;99.90
33139;DHT22;19501;50.948;5.316;2023-03-29T07:31:30;10.60;99.90
33139;DHT22;19501;50.948;5.316;2023-03-29T07:34:00;10.70;99.90
33139;DHT22;19501;50.948;5.316;2023-03-29T07:36:27;10.60;99.90
33139;DHT22;19501;50.948;5.316;2023-03-29T07:38:54;10.70;99.90
33139;DHT22;19501;50.948;5.316;2023-03-29T07:41:21;10.70;99.90
33139;DHT22;19501;50.948;5.316;2023-03-29T07:43:47;10.60;99.90
33139;DHT22;19501;50.948;5.316;2023-03-29T07:46:14;10.60;99.90
33139;DHT22;19501;50.948;5.316;2023-03-29T07:48:40;10.60;99.90
33139;DHT22;19501;50.948;5.316;2023-03-29T07:51:06;10.70;99.90
33139;DHT22;19501;50.948;5.316;2023-03-29T07:53:31;10.90;99.90
33139;DHT22;19501;50.948;5.316;2023-03-29T07:55:59;10.90;99.90
33139;DHT22;19501;50.948;5.316;2023-03-29T07:58:26;11.00;99.90
33139;DHT22;19501;50.948;5.316;2023-03-29T08:00:51;11.20;99.90
33139;DHT22;19501;50.948;5.316;2023-03-29T08:03:17;11.40;99.90
33139;DHT22;19501;50.948;5.316;2023-03-29T08:05:43;11.50;99.90
33139;DHT22;19501;50.948;5.316;2023-03-29T08:08:09;11.20;99.90
33139;DHT22;19501;50.948;5.316;2023-03-29T08:10:36;11.20;99.90
33139;DHT22;19501;50.948;5.316;2023-03-29T08:13:04;11.30;99.90
33139;DHT22;19501;50.948;5.316;2023-03-29T08:15:33;11.10;99.90
33139;DHT22;19501;50.948;5.316;2023-03-29T08:17:58;11.10;99.90
33139;DHT22;19501;50.948;5.316;2023-03-29T08:20:24;11.20;99.90
33139;DHT22;19501;50.948;5.316;2023-03-29T08:22:50;11.20;99.90
33139;DHT22;19501;50.948;5.316;2023-03-29T08:25:16;11.10;99.90
33139;DHT22;19501;50.948;5.316;2023-03-29T08:27:41;11.20;99.90
33139;DHT22;19501;50.948;5.316;2023-03-29T08:30:08;11.30;99.90
33139;DHT22;19501;50.948;5.316;2023-03-29T08:32:35;11.20;99.90
33139;DHT22;19501;50.948;5.316;2023-03-29T08:35:03;11.10;99.90
33139;DHT22;19501;50.948;5.316;2023-03-29T08:37:30;11.20;99.90
33139;DHT22;19501;50.948;5.316;2023-03-29T08:39:56;11.40;99.90
33139;DHT22;19501;50.948;5.316;2023-03-29T08:50:21;11.80;99.90
33139;DHT22;19501;50.948;5.316;2023-03-29T08:52:58;11.80;99.90
33139;DHT22;19501;50.948;5.316;2023-03-29T08:58:02;12.10;99.90
33139;DHT22;19501;50.948;5.316;2023-03-29T09:00:44;12.00;99.90
33139;DHT22;19501;50.948;5.316;2023-03-29T09:03:39;11.90;99.90
33139;DHT22;19501;50.948;5.316;2023-03-29T09:06:11;12.00;99.90
33139;DHT22;19501;50.948;5.316;2023-03-29T09:08:45;12.10;99.90
33139;DHT22;19501;50.948;5.316;2023-03-29T09:17:13;12.10;99.90
33139;DHT22;19501;50.948;5.316;2023-03-29T09:19:57;12.20;99.90
33139;DHT22;19501;50.948;5.316;2023-03-29T09:22:40;12.20;99.90
33139;DHT22;19501;50.948;5.316;2023-03-29T09:25:17;12.40;99.90
33139;DHT22;19501;50.948;5.316;2023-03-29T09:28:05;12.40;99.90
33139;DHT22;19501;50.948;5.316;2023-03-29T09:30:41;12.60;99.90
33139;DHT22;19501;50.948;5.316;2023-03-29T09:33:24;12.70;99.90
33139;DHT22;19501;50.948;5.316;2023-03-29T09:36:16;13.00;99.90
33139;DHT22;19501;50.948;5.316;2023-03-29T09:38:46;13.50;99.90
33139;DHT22;19501;50.948;5.316;2023-03-29T09:41:32;13.20;99.90
33139;DHT22;19501;50.948;5.316;2023-03-29T09:44:04;13.00;99.90
33139;DHT22;19501;50.948;5.316;2023-03-29T09:46:40;13.00;99.90
33139;DHT22;19501;50.948;5.316;2023-03-29T09:49:11;13.10;99.90
33139;DHT22;19501;50.948;5.316;2023-03-29T09:51:44;13.20;99.90
33139;DHT22;19501;50.948;5.316;2023-03-29T09:54:11;13.00;99.90
33139;DHT22;19501;50.948;5.316;2023-03-29T09:56:40;13.00;99.90
33139;DHT22;19501;50.948;5.316;2023-03-29T09:59:09;13.20;99.90
33139;DHT22;19501;50.948;5.316;2023-03-29T10:01:37;13.00;99.90
33139;DHT22;19501;50.948;5.316;2023-03-29T10:04:11;12.70;99.90
33139;DHT22;19501;50.948;5.316;2023-03-29T10:06:42;12.70;99.90
33139;DHT22;19501;50.948;5.316;2023-03-29T10:09:20;12.90;99.90
33139;DHT22;19501;50.948;5.316;2023-03-29T10:11:54;13.00;99.90
33139;DHT22;19501;50.948;5.316;2023-03-29T10:14:37;13.10;99.90
33139;DHT22;19501;50.948;5.316;2023-03-29T10:17:25;13.00;99.90
33139;DHT22;19501;50.948;5.316;2023-03-29T10:19:57;13.00;99.90
33139;DHT22;19501;50.948;5.316;2023-03-29T10:22:32;13.20;99.90
33139;DHT22;19501;50.948;5.316;2023-03-29T10:24:59;13.30;99.90
33139;DHT22;19501;50.948;5.316;2023-03-29T10:27:30;13.10;99.90
33139;DHT22;19501;50.948;5.316;2023-03-29T10:29:58;13.10;99.90
33139;DHT22;19501;50.948;5.316;2023-03-29T10:32:35;13.10;99.90
33139;DHT22;19501;50.948;5.316;2023-03-29T10:35:23;13.30;99.90
33139;DHT22;19501;50.948;5.316;2023-03-29T10:37:50;13.40;99.90
33139;DHT22;19501;50.948;5.316;2023-03-29T10:42:50;13.90;99.90
33139;DHT22;19501;50.948;5.316;2023-03-29T10:45:30;14.00;99.90
33139;DHT22;19501;50.948;5.316;2023-03-29T10:47:57;14.30;99.90
33139;DHT22;19501;50.948;5.316;2023-03-29T10:50:25;14.60;99.90
33139;DHT22;19501;50.948;5.316;2023-03-29T10:52:51;14.50;99.90
33139;DHT22;19501;50.948;5.316;2023-03-29T10:55:17;14.50;99.90
33139;DHT22;19501;50.948;5.316;2023-03-29T11:05:53;14.30;99.90
33139;DHT22;19501;50.948;5.316;2023-03-29T11:17:07;15.30;99.90
33139;DHT22;19501;50.948;5.316;2023-03-29T11:20:02;15.80;99.90
33139;DHT22;19501;50.948;5.316;2023-03-29T11:27:52;16.20;99.90
33139;DHT22;19501;50.948;5.316;2023-03-29T11:30:27;16.10;99.90
33139;DHT22;19501;50.948;5.316;2023-03-29T11:36:08;16.00;99.90
33139;DHT22;19501;50.948;5.316;2023-03-29T11:41:23;16.10;99.90
33139;DHT22;19501;50.948;5.316;2023-03-29T11:43:56;16.20;99.90
33139;DHT22;19501;50.948;5.316;2023-03-29T11:46:38;16.20;99.90
33139;DHT22;19501;50.948;5.316;2023-03-29T12:00:37;16.20;99.90
33139;DHT22;19501;50.948;5.316;2023-03-29T12:03:09;16.30;99.90
33139;DHT22;19501;50.948;5.316;2023-03-29T12:08:24;16.10;99.90
33139;DHT22;19501;50.948;5.316;2023-03-29T12:11:02;16.00;99.90
33139;DHT22;19501;50.948;5.316;2023-03-29T12:13:43;15.60;99.90
33139;DHT22;19501;50.948;5.316;2023-03-29T12:16:30;15.90;99.90
33139;DHT22;19501;50.948;5.316;2023-03-29T12:19:07;16.20;99.90
33139;DHT22;19501;50.948;5.316;2023-03-29T12:21:37;16.40;99.90
33139;DHT22;19501;50.948;5.316;2023-03-29T12:24:05;16.40;99.90
33139;DHT22;19501;50.948;5.316;2023-03-29T12:26:47;16.30;99.90
33139;DHT22;19501;50.948;5.316;2023-03-29T12:29:27;16.60;99.90
33139;DHT22;19501;50.948;5.316;2023-03-29T12:40:13;17.50;99.90
33139;DHT22;19501;50.948;5.316;2023-03-29T12:42:59;17.80;99.90
33139;DHT22;19501;50.948;5.316;2023-03-29T12:45:37;17.40;99.90
33139;DHT22;19501;50.948;5.316;2023-03-29T12:48:05;18.10;99.90
33139;DHT22;19501;50.948;5.316;2023-03-29T12:55:52;17.80;99.90
33139;DHT22;19501;50.948;5.316;2023-03-29T13:01:31;17.20;99.90
33139;DHT22;19501;50.948;5.316;2023-03-29T13:09:23;16.90;99.90
33139;DHT22;19501;50.948;5.316;2023-03-29T13:14:20;16.70;99.90
33139;DHT22;19501;50.948;5.316;2023-03-29T13:16:47;17.00;99.90
33139;DHT22;19501;50.948;5.316;2023-03-29T13:33:16;17.80;99.90
33139;DHT22;19501;50.948;5.316;2023-03-29T13:36:04;17.60;99.90
33139;DHT22;19501;50.948;5.316;2023-03-29T13:38:31;17.80;99.90
33139;DHT22;19501;50.948;5.316;2023-03-29T13:41:30;17.50;99.90
33139;DHT22;19501;50.948;5.316;2023-03-29T13:43:56;17.40;99.90
33139;DHT22;19501;50.948;5.316;2023-03-29T13:46:41;17.20;99.90
33139;DHT22;19501;50.948;5.316;2023-03-29T13:49:15;17.10;99.90
33139;DHT22;19501;50.948;5.316;2023-03-29T13:52:09;17.20;99.90
33139;DHT22;19501;50.948;5.316;2023-03-29T13:57:49;17.40;99.90
33139;DHT22;19501;50.948;5.316;2023-03-29T14:00:17;17.10;99.90
33139;DHT22;19501;50.948;5.316;2023-03-29T14:02:46;16.90;99.90
33139;DHT22;19501;50.948;5.316;2023-03-29T14:05:15;17.00;99.90
33139;DHT22;19501;50.948;5.316;2023-03-29T14:07:46;17.30;99.90
33139;DHT22;19501;50.948;5.316;2023-03-29T14:10:17;17.10;99.90
33139;DHT22;19501;50.948;5.316;2023-03-29T14:12:44;17.00;99.90
33139;DHT22;19501;50.948;5.316;2023-03-29T14:15:40;16.70;99.90
33139;DHT22;19501;50.948;5.316;2023-03-29T14:18:03;16.70;99.90
33139;DHT22;19501;50.948;5.316;2023-03-29T14:20:30;16.90;99.90
33139;DHT22;19501;50.948;5.316;2023-03-29T14:22:57;16.80;99.90
33139;DHT22;19501;50.948;5.316;2023-03-29T14:25:23;16.70;99.90
33139;DHT22;19501;50.948;5.316;2023-03-29T14:27:49;16.60;99.90
33139;DHT22;19501;50.948;5.316;2023-03-29T14:32:47;17.10;99.90
33139;DHT22;19501;50.948;5.316;2023-03-29T14:35:13;17.40;99.90
33139;DHT22;19501;50.948;5.316;2023-03-29T14:37:41;17.30;99.90
33139;DHT22;19501;50.948;5.316;2023-03-29T14:40:15;17.20;99.90
33139;DHT22;19501;50.948;5.316;2023-03-29T14:42:43;17.00;99.90
33139;DHT22;19501;50.948;5.316;2023-03-29T14:45:12;17.10;99.90
33139;DHT22;19501;50.948;5.316;2023-03-29T14:47:39;17.30;99.90
33139;DHT22;19501;50.948;5.316;2023-03-29T14:50:05;17.60;99.90
33139;DHT22;19501;50.948;5.316;2023-03-29T14:52:37;17.80;99.90
33139;DHT22;19501;50.948;5.316;2023-03-29T14:55:04;17.70;99.90
33139;DHT22;19501;50.948;5.316;2023-03-29T14:57:35;17.80;99.90
33139;DHT22;19501;50.948;5.316;2023-03-29T15:01:02;18.40;99.90
33139;DHT22;19501;50.948;5.316;2023-03-29T15:03:00;18.20;99.90
33139;DHT22;19501;50.948;5.316;2023-03-29T15:05:36;17.90;99.90
33139;DHT22;19501;50.948;5.316;2023-03-29T15:08:03;17.70;99.90
33139;DHT22;19501;50.948;5.316;2023-03-29T15:10:32;17.70;99.90
33139;DHT22;19501;50.948;5.316;2023-03-29T15:13:01;17.90;99.90
33139;DHT22;19501;50.948;5.316;2023-03-29T15:15:31;18.10;99.90
33139;DHT22;19501;50.948;5.316;2023-03-29T15:18:00;18.20;99.90
33139;DHT22;19501;50.948;5.316;2023-03-29T15:20:28;18.10;99.90
33139;DHT22;19501;50.948;5.316;2023-03-29T15:25:33;17.90;99.90
33139;DHT22;19501;50.948;5.316;2023-03-29T15:28:00;17.90;99.90
33139;DHT22;19501;50.948;5.316;2023-03-29T15:30:38;17.90;99.90
33139;DHT22;19501;50.948;5.316;2023-03-29T15:33:22;17.80;99.90
33139;DHT22;19501;50.948;5.316;2023-03-29T15:35:51;17.80;99.90
33139;DHT22;19501;50.948;5.316;2023-03-29T15:38:20;17.80;99.90
33139;DHT22;19501;50.948;5.316;2023-03-29T15:40:46;17.70;99.90
33139;DHT22;19501;50.948;5.316;2023-03-29T15:43:13;17.70;99.90
33139;DHT22;19501;50.948;5.316;2023-03-29T15:45:39;17.70;99.90
33139;DHT22;19501;50.948;5.316;2023-03-29T15:48:14;17.60;99.90
33139;DHT22;19501;50.948;5.316;2023-03-29T15:50:42;17.70;99.90
33139;DHT22;19501;50.948;5.316;2023-03-29T15:53:08;17.80;99.90
33139;DHT22;19501;50.948;5.316;2023-03-29T15:55:34;17.80;99.90
33139;DHT22;19501;50.948;5.316;2023-03-29T15:58:00;17.90;99.90
33139;DHT22;19501;50.948;5.316;2023-03-29T16:00:25;17.90;99.90
33139;DHT22;19501;50.948;5.316;2023-03-29T16:02:52;17.90;99.90
33139;DHT22;19501;50.948;5.316;2023-03-29T16:05:17;17.90;99.90
33139;DHT22;19501;50.948;5.316;2023-03-29T16:07:43;18.00;99.90
33139;DHT22;19501;50.948;5.316;2023-03-29T16:10:09;18.00;99.90
33139;DHT22;19501;50.948;5.316;2023-03-29T16:12:34;17.90;99.90
33139;DHT22;19501;50.948;5.316;2023-03-29T16:15:16;17.90;99.90
33139;DHT22;19501;50.948;5.316;2023-03-29T16:17:43;17.80;99.90
33139;DHT22;19501;50.948;5.316;2023-03-29T16:20:09;17.90;99.90
33139;DHT22;19501;50.948;5.316;2023-03-29T16:22:35;17.80;99.90
33139;DHT22;19501;50.948;5.316;2023-03-29T16:25:01;17.70;99.90
33139;DHT22;19501;50.948;5.316;2023-03-29T16:27:30;17.60;99.90
33139;DHT22;19501;50.948;5.316;2023-03-29T16:29:57;17.60;99.90
33139;DHT22;19501;50.948;5.316;2023-03-29T16:32:23;17.50;99.90
33139;DHT22;19501;50.948;5.316;2023-03-29T16:34:49;17.50;99.90
33139;DHT22;19501;50.948;5.316;2023-03-29T16:37:14;17.40;99.90
33139;DHT22;19501;50.948;5.316;2023-03-29T16:39:40;17.50;99.90
33139;DHT22;19501;50.948;5.316;2023-03-29T16:42:08;17.40;99.90
33139;DHT22;19501;50.948;5.316;2023-03-29T16:44:35;17.30;99.90
33139;DHT22;19501;50.948;5.316;2023-03-29T16:47:01;17.30;99.90
33139;DHT22;19501;50.948;5.316;2023-03-29T16:49:26;17.30;99.90
33139;DHT22;19501;50.948;5.316;2023-03-29T16:51:52;17.30;99.90
33139;DHT22;19501;50.948;5.316;2023-03-29T16:54:18;17.20;99.90
33139;DHT22;19501;50.948;5.316;2023-03-29T16:56:44;17.20;99.90
33139;DHT22;19501;50.948;5.316;2023-03-29T16:59:12;17.10;99.90
33139;DHT22;19501;50.948;5.316;2023-03-29T17:01:37;17.10;99.90
33139;DHT22;19501;50.948;5.316;2023-03-29T17:04:04;17.10;99.90
33139;DHT22;19501;50.948;5.316;2023-03-29T17:06:30;17.10;99.90
33139;DHT22;19501;50.948;5.316;2023-03-29T17:08:57;17.10;99.90
33139;DHT22;19501;50.948;5.316;2023-03-29T17:11:23;17.10;99.90
33139;DHT22;19501;50.948;5.316;2023-03-29T17:13:50;17.00;99.90
33139;DHT22;19501;50.948;5.316;2023-03-29T17:16:16;17.00;99.90
33139;DHT22;19501;50.948;5.316;2023-03-29T17:18:42;16.90;99.90
33139;DHT22;19501;50.948;5.316;2023-03-29T17:21:08;16.90;99.90
33139;DHT22;19501;50.948;5.316;2023-03-29T17:23:33;16.90;99.90
33139;DHT22;19501;50.948;5.316;2023-03-29T17:25:59;16.80;99.90
33139;DHT22;19501;50.948;5.316;2023-03-29T17:28:26;16.70;99.90
33139;DHT22;19501;50.948;5.316;2023-03-29T17:30:51;16.70;99.90
33139;DHT22;19501;50.948;5.316;2023-03-29T17:33:17;16.60;99.90
33139;DHT22;19501;50.948;5.316;2023-03-29T17:35:46;16.60;99.90
33139;DHT22;19501;50.948;5.316;2023-03-29T17:38:12;16.70;99.90
33139;DHT22;19501;50.948;5.316;2023-03-29T17:40:38;16.70;99.90
33139;DHT22;19501;50.948;5.316;2023-03-29T17:43:04;16.60;99.90
33139;DHT22;19501;50.948;5.316;2023-03-29T17:45:30;16.50;99.90
33139;DHT22;19501;50.948;5.316;2023-03-29T17:47:59;16.40;99.90
33139;DHT22;19501;50.948;5.316;2023-03-29T17:50:24;16.40;99.90
33139;DHT22;19501;50.948;5.316;2023-03-29T17:52:50;16.20;99.90
33139;DHT22;19501;50.948;5.316;2023-03-29T17:55:16;16.20;99.90
33139;DHT22;19501;50.948;5.316;2023-03-29T17:57:42;16.20;99.90